Edna T. Gattle — WDD2528 — position and weather

sailwx.info

Track history (hours):
 
Tides and Currents Weather Stations Pressure Air Temp Water Temp Dewpoint Dewpoint Depression Visibility Wind Speed Wind Dir Waves Ship Positions

Edna T. Gattle

Owner: Terral RiverService, Inc., Lake Providence, LA. More information available from US FCC via Universal Licensing System and Coast Guard Vessel Documentation Center.

Last reported at 2015-Feb-26 15:07 UTC. Time now 2015-Mar-27 01:59 UTC.
Position N 29°46' W 091°38'.
Warning: this ship's position is 28 days out of date.

Length 33 m; draft 2.6 m.

Type: Towing. MMSI: 367116420.

Date/timePositionNaut miles runAvg speedWind from/ knotsBaromVisibWave heightAir tempDewpointWater temp
2015-Feb-26 15:07N 29°46' W 091°38'4 5.7
2015-Feb-26 14:27N 29°44' W 091°34'6 6.2
2015-Feb-26 13:33N 29°41' W 091°29'6 5.6
2015-Feb-26 12:33N 29°39' W 091°23'6 6.1
2015-Feb-26 11:33N 29°39' W 091°16'6 6.0
2015-Feb-26 10:33N 29°45' W 091°14'7 7.2
2015-Feb-26 09:33N 29°47' W 091°22'8 8.0
2015-Feb-26 08:33N 29°54' W 091°27'6 0.2
2015-Feb-25 08:28N 29°59' W 091°28'6 6.8
2015-Feb-25 07:33N 29°53' W 091°26'7 6.8
2015-Feb-25 06:33N 29°48' W 091°22'6 6.4
2015-Feb-25 05:33N 29°46' W 091°15'5 5.3
2015-Feb-25 04:33N 29°41' W 091°11'1 1.5
2015-Feb-25 03:33N 29°41' W 091°10'0 0.1
2015-Feb-25 02:33N 29°41' W 091°10'0 0.0
2015-Feb-25 01:33N 29°41' W 091°10'0 0.0
2015-Feb-25 00:33N 29°41' W 091°10'0 0.0
2015-Feb-24 23:33N 29°41' W 091°10'0 0.0
2015-Feb-24 22:33N 29°41' W 091°10'0 0.0
2015-Feb-24 21:33N 29°41' W 091°10'0 0.0
2015-Feb-24 20:33N 29°41' W 091°10'0 0.2
2015-Feb-24 19:33N 29°41' W 091°09'5 5.0
2015-Feb-24 18:33N 29°38' W 091°05'6 6.4
2015-Feb-24 17:33N 29°36' W 090°58'7 6.9
2015-Feb-24 16:33N 29°32' W 090°51'  
2015-Feb-22 05:29N 29°35' W 090°58'4 4.8
2015-Feb-22 04:33N 29°37' W 091°02'4 4.4
2015-Feb-22 03:33N 29°38' W 091°07'4 4.0
2015-Feb-22 02:33N 29°41' W 091°11'3 3.1
2015-Feb-22 01:33N 29°43' W 091°13'2 2.2
2015-Feb-22 00:33N 29°45' W 091°14'7 7.4
2015-Feb-21 23:33N 29°48' W 091°22'  
Track history (hours):
 
Tides and Currents Weather Stations Pressure Air Temp Water Temp Dewpoint Dewpoint Depression Visibility Wind Speed Wind Dir Waves Ship Positions

Edna T. Gattle

Owner: Terral RiverService, Inc., Lake Providence, LA. More information available from US FCC via Universal Licensing System and Coast Guard Vessel Documentation Center.

Last reported at 2015-Feb-26 15:07 UTC. Time now 2015-Mar-27 01:59 UTC.
Position N 29°46' W 091°38'.
Warning: this ship's position is 28 days out of date.

Length 33 m; draft 2.6 m.

Type: Towing. MMSI: 367116420.

Date/timePositionNaut miles runAvg speedWind from/ knotsBaromVisibWave heightAir tempDewpointWater temp
2015-Feb-26 15:07N 29°46' W 091°38'4 5.7
2015-Feb-26 14:27N 29°44' W 091°34'6 6.2
2015-Feb-26 13:33N 29°41' W 091°29'6 5.6
2015-Feb-26 12:33N 29°39' W 091°23'6 6.1
2015-Feb-26 11:33N 29°39' W 091°16'6 6.0
2015-Feb-26 10:33N 29°45' W 091°14'7 7.2
2015-Feb-26 09:33N 29°47' W 091°22'8 8.0
2015-Feb-26 08:33N 29°54' W 091°27'6 0.2
2015-Feb-25 08:28N 29°59' W 091°28'6 6.8
2015-Feb-25 07:33N 29°53' W 091°26'7 6.8
2015-Feb-25 06:33N 29°48' W 091°22'6 6.4
2015-Feb-25 05:33N 29°46' W 091°15'5 5.3
2015-Feb-25 04:33N 29°41' W 091°11'1 1.5
2015-Feb-25 03:33N 29°41' W 091°10'0 0.1
2015-Feb-25 02:33N 29°41' W 091°10'0 0.0
2015-Feb-25 01:33N 29°41' W 091°10'0 0.0
2015-Feb-25 00:33N 29°41' W 091°10'0 0.0
2015-Feb-24 23:33N 29°41' W 091°10'0 0.0
2015-Feb-24 22:33N 29°41' W 091°10'0 0.0
2015-Feb-24 21:33N 29°41' W 091°10'0 0.0
2015-Feb-24 20:33N 29°41' W 091°10'0 0.2
2015-Feb-24 19:33N 29°41' W 091°09'5 5.0
2015-Feb-24 18:33N 29°38' W 091°05'6 6.4
2015-Feb-24 17:33N 29°36' W 090°58'7 6.9
2015-Feb-24 16:33N 29°32' W 090°51'  
2015-Feb-22 05:29N 29°35' W 090°58'4 4.8
2015-Feb-22 04:33N 29°37' W 091°02'4 4.4
2015-Feb-22 03:33N 29°38' W 091°07'4 4.0
2015-Feb-22 02:33N 29°41' W 091°11'3 3.1
2015-Feb-22 01:33N 29°43' W 091°13'2 2.2
2015-Feb-22 00:33N 29°45' W 091°14'7 7.4
2015-Feb-21 23:33N 29°48' W 091°22'  

Dump ship's entire track history